Station: Yunta

  Atmospheric Gas Attenuation - ITU Rec 676-11   --------------- db/100km ---------------
Date Time Temp RH % AH g/m3 Dew Point Wind Direction Speed kph Gust kph Barometer mB Rainfall Since 9am 24GHz 47GHz 76GHz 122GHz 134GHz 241GHz
25 01:40 16 39 5.31 2 0 0 1013.1 0 12.5 20.4 26.7 69.4 56.0 190.1
25 01:30 16.2 40 5.52 2.6 0 0 1011.2 0 13.0 20.6 27.3 71.0 58.1 197.6
25 01:20 16.4 39 5.44 2.4 0 0 1013.1 0 12.8 20.5 27.0 70.3 57.2 194.3
25 01:10 16.7 38 5.4 2.3 0 0 1013.1 0 12.7 20.4 26.8 69.7 56.5 192.0
25 01:00 16.9 37 5.32 2.1 0 0 1011.5 0 12.5 20.2 26.4 68.7 55.4 188.1
25 00:50 17.4 36 5.33 2.2 0 0 1013.1 0 12.5 20.1 26.3 68.4 55.3 187.7
25 00:40 17.4 36 5.33 2.2 0 0 1013.1 0 12.5 20.1 26.3 68.4 55.3 187.7
25 00:30 17.1 37 5.39 2.3 0 0 1011.9 0 12.7 20.2 26.6 69.1 56.1 190.5
25 00:20 17.3 36 5.3 2.1 0 0 1013.1 0 12.5 20.1 26.2 68.3 55.0 186.7
25 00:10 17.5 36 5.37 2.2 0 0 1013.1 0 12.6 20.2 26.4 68.7 55.6 189.0
25 00:00 18 35 5.38 2.3 0 2 1012.1 0 12.6 20.0 26.3 68.3 55.4 188.1
24 23:50 18.5 34 5.38 2.3 2 2 1013.1 0 12.6 20.0 26.1 68.0 55.1 187.1
24 23:40 18.4 34 5.35 2.2 2 2 1013.1 0 12.5 19.9 26.1 67.8 54.8 186.2
24 23:30 18.9 34 5.51 2.7 6 7 1012.2 0 12.8 20.0 26.4 68.7 56.2 191.0
24 23:20 19.2 33 5.44 2.5 6 6 1013.1 0 12.7 19.9 26.1 67.9 55.3 187.8
24 23:10 19.5 32 5.37 2.3 6 7 1013.1 0 12.5 19.7 25.8 67.1 54.3 184.5
24 23:00 20.2 31 5.42 2.5 6 7 1012.2 0 12.6 19.6 25.7 66.9 54.3 184.7
24 22:50 20.7 30 5.4 2.5 6 6 1013.1 0 12.6 19.5 25.5 66.4 53.8 182.9
24 22:40 20.9 30 5.46 2.7 6 7 1013.1 0 12.7 19.6 25.6 66.7 54.3 184.8
24 22:30 21.5 29 5.47 2.7 7 9 1012.2 0 12.7 19.4 25.5 66.3 54.0 183.7
24 22:20 21.8 29 5.56 3 7 7 1013.1 0 12.9 19.5 25.7 66.9 54.8 186.5
24 22:10 22.1 28 5.47 2.7 9 9 1013.1 0 12.7 19.3 25.3 65.9 53.7 182.5
24 22:00 22.3 28 5.53 2.9 7 11 1012.2 0 12.8 19.3 25.4 66.1 54.1 184.1
24 21:50 22.2 28 5.5 2.8 7 9 1013.1 0 12.7 19.3 25.4 66.0 53.9 183.4
24 21:40 22.4 27 5.36 2.5 7 7 1013.1 0 12.4 19.1 24.9 64.7 52.3 177.8
24 21:30 22.6 26 5.22 2.1 7 9 1012 0 12.1 18.9 24.3 63.3 50.7 172.1
24 21:20 23.1 26 5.37 2.5 9 9 1013.1 0 12.4 19.0 24.7 64.2 52.0 176.7
24 21:10 23.6 25 5.32 2.4 7 9 1013.1 0 12.3 18.8 24.4 63.4 51.1 173.8
24 21:00 24 24 5.22 2.2 11 15 1011.7 0 12.1 18.6 23.9 62.2 49.8 169.2
24 20:50 24.1 24 5.25 2.3 9 11 1013.1 0 12.1 18.6 24.0 62.5 50.1 170.3
24 20:40 24.4 23 5.12 1.9 11 13 1013.1 0 11.9 18.4 23.6 61.2 48.6 165.1
24 20:30 24.5 23 5.15 2 11 17 1011.7 0 11.9 18.4 23.6 61.3 48.8 165.7
24 20:20 24.8 22 5.01 1.6 13 15 1013.1 0 11.6 18.2 23.1 60.0 47.3 160.4
24 20:10 24.8 22 5.01 1.6 9 11 1013.1 0 11.6 18.2 23.1 60.0 47.3 160.4
24 20:00 25.4 21 4.94 1.5 13 17 1011.6 0 11.5 18.0 22.7 58.9 46.2 156.7
24 19:50 25.7 20 4.79 1 15 17 1013.1 0 11.1 17.8 22.2 57.6 44.6 151.1
24 19:40 26 19 4.63 0.6 17 20 1013.1 0 10.8 17.5 21.7 56.2 42.9 145.1
24 19:30 26.3 19 4.7 0.9 15 20 1011.4 0 10.9 17.5 21.8 56.4 43.4 146.8
24 19:20 26.6 18 4.53 0.3 15 17 1013.1 0 10.6 17.3 21.2 55.0 41.7 140.8
24 19:10 26.8 18 4.58 0.5 13 15 1013.1 0 10.7 17.3 21.3 55.3 42.0 142.1
24 19:00 26.9 17 4.35 -0.2 17 24 1011.2 0 10.2 17.0 20.6 53.3 39.7 134.0
24 18:50 27.1 17 4.4 -0.1 19 20 1013.1 0 10.3 17.1 20.7 53.7 40.2 135.6
24 18:40 27.3 17 4.45 0.1 19 22 1013.1 0 10.4 17.1 20.8 53.9 40.6 136.9
24 18:30 27.3 16 4.19 -0.7 19 28 1010.9 0 9.9 16.7 20.0 51.8 38.0 128.1
24 18:20 27.5 16 4.23 -0.6 20 22 1013.1 0 9.9 16.8 20.2 52.2 38.4 129.3
24 18:10 27.8 16 4.3 -0.3 19 26 1013.1 0 10.1 16.8 20.3 52.5 38.9 131.2
24 18:00 27.9 16 4.33 -0.2 19 30 1011 0 10.1 16.8 20.3 52.5 39.1 131.8
24 17:50 27.8 16 4.3 -0.3 20 26 1013.1 0 10.1 16.8 20.3 52.5 38.9 131.2
24 17:40 27.8 16 4.3 -0.3 19 22 1013.1 0 10.1 16.8 20.3 52.5 38.9 131.2
24 17:30 28.1 16 4.38 -0.1 19 28 1011 0 10.2 16.8 20.4 52.8 39.5 133.1
24 17:20 27.9 16 4.33 -0.3 13 15 1013.1 0 10.1 16.8 20.4 52.7 39.2 132.0
24 17:10 28 16 4.35 -0.2 24 30 1013.1 0 10.2 16.8 20.4 52.8 39.3 132.5
24 17:00 27.7 16 4.28 -0.4 19 32 1011.1 0 10.0 16.8 20.2 52.3 38.7 130.5
24 16:50 27.6 16 4.26 -0.5 7 9 1013.1 0 10.0 16.8 20.2 52.3 38.6 130.2
24 16:40 27.5 16 4.23 -0.6 13 17 1013.1 0 9.9 16.8 20.2 52.2 38.4 129.3
24 16:30 28.3 16 4.42 0.1 15 22 1011.2 0 10.3 16.8 20.5 53.0 39.7 134.1
24 16:20 28 16 4.35 -0.2 19 22 1013.1 0 10.2 16.8 20.4 52.8 39.3 132.5
24 16:10 27.9 16 4.33 -0.3 15 19 1013.1 0 10.1 16.8 20.4 52.7 39.2 132.0
24 16:00 27.8 16 4.3 -0.3 15 26 1011.6 0 10.1 16.8 20.3 52.4 38.9 131.0
24 15:50 28.3 17 4.7 0.9 19 26 1013.1 0 10.9 17.2 21.3 55.2 42.4 143.6
24 15:40 27.4 17 4.47 0.2 22 28 1013.1 0 10.4 17.1 20.9 54.0 40.7 137.4
24 15:30 27 17 4.38 -0.1 15 26 1011.9 0 10.3 17.0 20.7 53.5 40.0 134.9
24 15:20 27.7 18 4.82 1.2 17 20 1013.1 0 11.1 17.4 21.8 56.5 43.9 148.7
24 15:10 26.8 17 4.33 -0.3 17 20 1013.1 0 10.2 17.0 20.6 53.3 39.7 133.7
24 15:00 26.7 18 4.56 0.4 15 24 1012.4 0 10.6 17.3 21.3 55.1 41.9 141.5
24 14:50 27.2 18 4.68 0.8 19 22 1013.1 0 10.9 17.4 21.5 55.8 42.8 144.8
24 14:40 26 18 4.38 -0.2 7 11 1013.1 0 10.3 17.2 21.0 54.2 40.5 136.7
24 14:30 25.7 18 4.31 -0.4 17 26 1012.8 0 10.2 17.2 20.8 53.9 40.0 134.7
24 14:20 26 18 4.38 -0.2 11 15 1013.1 0 10.3 17.2 21.0 54.2 40.5 136.7
24 14:10 25.7 21 5.03 1.7 9 17 1013.1 0 11.6 18.1 22.9 59.5 47.0 159.4
24 14:00 24.7 21 4.75 0.9 11 22 1013.3 0 11.1 17.9 22.4 58.0 44.8 151.6
24 13:50 24.7 21 4.75 0.9 9 22 1013.1 0 11.1 17.9 22.4 58.0 44.8 151.5
24 13:40 24.5 22 4.92 1.4 15 17 1013.1 0 11.4 18.2 22.9 59.5 46.6 157.8
24 13:30 24.1 24 5.25 2.3 11 22 1014 0 12.1 18.7 24.1 62.5 50.2 170.4
24 13:20 24.1 24 5.25 2.3 11 15 1013.1 0 12.1 18.6 24.0 62.5 50.1 170.3
24 13:10 24.1 24 5.25 2.3 9 13 1013.1 0 12.1 18.6 24.0 62.5 50.1 170.3
24 13:00 23.6 27 5.74 3.5 9 20 1014.4 0 13.2 19.4 25.8 67.0 55.5 189.3
24 12:50 23 28 5.75 3.5 6 9 1013.1 0 13.2 19.5 25.9 67.5 56.0 190.8
24 12:40 22.9 28 5.72 3.4 13 17 1013.1 0 13.2 19.5 25.9 67.3 55.7 189.9
24 12:30 22.4 32 6.35 4.9 11 24 1014.8 0 14.5 20.5 28.1 73.3 62.9 215.1
24 12:20 21.8 32 6.14 4.3 9 13 1013.1 0 14.1 20.3 27.6 71.9 61.0 208.3
24 12:10 21.9 34 6.56 5.3 13 19 1013.1 0 14.9 20.8 28.9 75.5 65.5 224.1
24 12:00 22.3 34 6.71 5.7 11 19 1015.1 0 15.2 21.0 29.4 76.6 66.9 229.2
24 11:50 21.7 34 6.49 5.1 17 22 1013.1 0 14.8 20.8 28.8 75.1 64.9 222.0
24 11:40 21.3 36 6.71 5.6 13 17 1013.1 0 15.3 21.1 29.6 77.4 67.6 231.6
24 11:30 20.6 37 6.62 5.4 13 20 1015.2 0 15.1 21.2 29.7 77.4 67.4 230.5
24 11:20 19.8 40 6.83 5.8 9 11 1013.1 0 15.6 21.7 30.6 79.9 70.3 240.7
24 11:10 20.2 39 6.82 6.1 9 15 1013.1 0 15.5 21.5 30.4 79.5 69.8 239.1
24 11:00 18.9 46 7.45 7 11 20 1015.5 0 16.9 22.8 33.2 86.9 78.5 269.3
24 10:50 18.9 47 7.61 7.3 13 15 1013.1 0 17.3 23.0 33.7 88.2 80.2 275.4
24 10:40 18.4 51 8.02 8.1 19 20 1013.1 0 18.1 23.7 35.4 92.8 85.6 294.4
24 10:30 18.3 52 8.13 8.3 11 19 1015.7 0 18.4 24.0 36.0 94.2 87.3 300.1
24 10:20 17.6 53 7.95 7.9 7 9 1013.1 0 18.0 23.8 35.5 93.0 85.7 294.4
24 10:10 18 53 8.14 8.5 13 15 1013.1 0 18.4 24.0 36.0 94.4 87.6 301.0
24 10:00 17.6 56 8.4 8.7 15 22 1015.9 0 19.0 24.6 37.3 97.8 91.4 314.6
24 09:50 17.3 56 8.25 8.4 13 19 1013.1 0 18.7 24.4 36.8 96.4 89.7 308.5
24 09:40 16.7 59 8.38 8.6 19 20 1013.1 0 19.0 24.7 37.5 98.4 92.0 316.5
24 09:30 16.2 60 8.27 8.4 17 24 1016.1 0 18.8 24.8 37.5 98.2 91.4 314.4
24 09:20 16.3 60 8.32 8.5 17 20 1013.1 0 18.9 24.7 37.5 98.3 91.7 315.5
24 09:10 15.2 63 8.18 8.2 15 19 1013.1 0 18.6 24.8 37.5 98.2 91.2 313.6

Last Refresh: 25-Nov-2020 01:47:06

Most of the information presented on this site is sourced from the Bureau of Meteorology.  Copyright in all material sourced from the Bureau of Meteorology resides with the Commonwealth of Australia.